Time;durP1;ratioP1;P1;durP2;ratioP2;P2;SDS_P1;SDS_P2;PMS_P1;PMS_P2;Temp;Humidity;BMP_temperature;BMP_pressure;BME280_temperature;BME280_humidity;BME280_pressure;Samples;Min_cycle;Max_cycle;Signal;HPM_P1;HPM_P2
2021/01/18 00:02:19;;;;;;;48.20;24.57;;;;;;;0.47;80.76;98412.00;5024695;28;20239;-81
2021/01/18 00:04:45;;;;;;;46.33;24.60;;;;;;;0.47;81.28;98413.72;5028614;28;20218;-81
2021/01/18 00:07:11;;;;;;;47.07;24.87;;;;;;;0.47;81.17;98412.00;5022849;28;20244;-80
2021/01/18 00:09:38;;;;;;;50.23;25.23;;;;;;;0.49;81.04;98415.41;5028139;28;20225;-80
2021/01/18 00:12:04;;;;;;;44.33;23.27;;;;;;;0.60;81.14;98419.78;5025216;28;20950;-80
2021/01/18 00:14:31;;;;;;;42.20;23.33;;;;;;;0.65;80.93;98415.53;5026394;28;20218;-80
2021/01/18 00:16:57;;;;;;;48.60;23.90;;;;;;;0.71;80.93;98415.56;5024798;28;20856;-80
2021/01/18 00:19:24;;;;;;;43.60;21.97;;;;;;;0.75;80.63;98418.16;5022385;28;20251;-80
2021/01/18 00:21:50;;;;;;;42.83;23.27;;;;;;;0.84;80.29;98413.91;5024850;28;20243;-80
2021/01/18 00:24:17;;;;;;;45.57;22.17;;;;;;;0.90;80.37;98412.22;5026171;28;20218;-81
2021/01/18 00:26:46;;;;;;;45.20;21.97;;;;;;;0.93;80.28;98401.94;5028621;28;20249;-80
2021/01/18 00:29:12;;;;;;;42.40;22.17;;;;;;;0.95;80.30;98410.50;5029626;28;20261;-79
2021/01/18 00:31:43;;;;;;;43.63;22.40;;;;;;;0.99;80.28;98400.25;5031535;28;20237;-81
2021/01/18 00:34:09;;;;;;;43.50;22.57;;;;;;;1.03;80.22;98402.88;5029030;28;21008;-79
2021/01/18 00:36:35;;;;;;;42.80;21.37;;;;;;;1.03;80.00;98400.28;5030874;28;20242;-80
2021/01/18 00:39:02;;;;;;;40.07;21.03;;;;;;;1.03;80.19;98407.13;5029932;28;20243;-81
2021/01/18 00:41:28;;;;;;;42.47;22.53;;;;;;;1.04;80.26;98403.72;5030369;28;20238;-80
2021/01/18 00:43:55;;;;;;;47.30;21.87;;;;;;;1.06;80.30;98407.13;5029797;28;20235;-80
2021/01/18 00:46:21;;;;;;;38.73;20.27;;;;;;;1.06;79.85;98405.41;5028215;28;20231;-80
2021/01/18 00:48:48;;;;;;;38.77;21.20;;;;;;;1.03;80.39;98412.25;5029672;28;20238;-81
2021/01/18 00:51:14;;;;;;;44.60;21.33;;;;;;;1.02;80.18;98405.41;5028615;28;20241;-80
2021/01/18 00:53:40;;;;;;;44.70;22.00;;;;;;;0.99;80.13;98400.25;5044445;28;20218;-80
2021/01/18 00:56:07;;;;;;;44.63;22.37;;;;;;;0.94;80.25;98401.09;5026784;28;20230;-80
2021/01/18 00:58:33;;;;;;;43.63;21.53;;;;;;;0.92;80.72;98410.53;5028752;28;20229;-79
2021/01/18 01:00:59;;;;;;;39.93;19.53;;;;;;;0.89;80.61;98405.34;5028823;28;20237;-80
2021/01/18 01:03:25;;;;;;;38.93;19.97;;;;;;;0.89;80.54;98405.34;5028411;28;20218;-80
2021/01/18 01:05:53;;;;;;;45.43;21.43;;;;;;;0.95;80.45;98397.66;5027200;28;20238;-80
2021/01/18 01:08:19;;;;;;;44.23;22.00;;;;;;;0.96;80.94;98396.84;5027166;28;20241;-79
2021/01/18 01:10:45;;;;;;;46.50;21.77;;;;;;;1.01;80.43;98398.56;5028420;28;20303;-80
2021/01/18 01:13:14;;;;;;;37.13;19.80;;;;;;;1.04;80.76;98391.72;5027852;28;20215;-79
2021/01/18 01:15:40;;;;;;;39.43;19.87;;;;;;;1.09;80.54;98394.31;5030892;28;21003;-79
2021/01/18 01:18:06;;;;;;;39.97;20.77;;;;;;;1.11;80.74;98400.31;5028643;28;20240;-79
2021/01/18 01:20:33;;;;;;;40.07;20.30;;;;;;;1.14;80.61;98400.34;5028666;28;20292;-79
2021/01/18 01:23:00;;;;;;;39.23;19.67;;;;;;;1.18;80.44;98401.16;5030400;28;20225;-79
2021/01/18 01:25:27;;;;;;;41.57;22.23;;;;;;;1.20;80.26;98400.34;5026828;28;20918;-80
2021/01/18 01:27:54;;;;;;;43.50;22.00;;;;;;;1.21;80.49;98391.75;5031161;28;20219;-79
2021/01/18 01:30:21;;;;;;;42.40;21.77;;;;;;;1.23;80.07;98392.66;5027001;28;20239;-80
2021/01/18 01:32:49;;;;;;;39.90;21.57;;;;;;;1.25;80.32;98398.66;5030203;28;20217;-80
2021/01/18 01:35:16;;;;;;;40.43;21.43;;;;;;;1.25;80.26;98398.66;5026500;28;20221;-80
2021/01/18 01:37:42;;;;;;;41.90;20.57;;;;;;;1.27;80.26;98401.19;5030163;28;20236;-80
2021/01/18 01:40:11;;;;;;;44.80;22.27;;;;;;;1.27;80.43;98401.19;5023387;28;20246;-81
2021/01/18 01:42:38;;;;;;;38.67;21.07;;;;;;;1.27;80.48;98396.94;5029708;28;20217;-80
2021/01/18 01:45:05;;;;;;;42.40;20.87;;;;;;;1.29;80.32;98399.50;5027507;28;20219;-79
2021/01/18 01:47:34;;;;;;;43.77;22.07;;;;;;;1.28;80.26;98398.63;5030696;28;20218;-81
2021/01/18 01:50:03;;;;;;;42.13;20.77;;;;;;;1.31;80.46;98408.09;5028105;28;20233;-81
2021/01/18 01:52:30;;;;;;;45.07;21.47;;;;;;;1.35;80.29;98400.38;5027210;28;20242;-80
2021/01/18 01:54:57;;;;;;;40.40;20.83;;;;;;;1.35;80.53;98400.38;5028393;28;20331;-79
2021/01/18 01:57:25;;;;;;;42.70;20.37;;;;;;;1.35;80.44;98400.38;5027372;28;20734;-79
2021/01/18 01:59:52;;;;;;;44.43;20.50;;;;;;;1.32;80.70;98400.38;5028411;28;20247;-81
2021/01/18 02:02:19;;;;;;;41.27;20.03;;;;;;;1.35;80.73;98405.50;5026625;28;20860;-79
2021/01/18 02:04:47;;;;;;;46.13;22.00;;;;;;;1.34;80.44;98401.25;5028683;28;20305;-79
2021/01/18 02:07:21;;;;;;;41.43;20.90;;;;;;;1.35;80.83;98404.66;5025563;28;20234;-81
2021/01/18 02:09:47;;;;;;;41.07;21.40;;;;;;;1.34;80.89;98402.94;5029918;28;20234;-80
2021/01/18 02:12:13;;;;;;;46.47;21.30;;;;;;;1.39;81.23;98405.53;5025746;28;20242;-79
2021/01/18 02:14:46;;;;;;;39.93;18.83;;;;;;;1.39;80.97;98405.53;5045194;28;20218;-80
2021/01/18 02:17:18;;;;;;;40.80;19.10;;;;;;;1.40;81.25;98408.09;5027357;28;20242;-80
2021/01/18 02:20:21;;;;;;;39.23;19.53;;;;;;;1.43;81.16;98412.38;5030107;28;20234;-80
2021/01/18 02:23:29;;;;;;;41.13;19.43;;;;;;;1.47;81.08;98414.97;5030052;28;20276;-79
2021/01/18 02:25:57;;;;;;;41.30;19.13;;;;;;;1.52;81.16;98402.13;5028647;28;20241;-80
2021/01/18 02:28:51;;;;;;;40.27;19.40;;;;;;;1.56;80.83;98408.97;5029460;28;20714;-79
2021/01/18 02:31:40;;;;;;;46.00;22.00;;;;;;;1.59;80.72;98408.97;5027616;28;20245;-80
2021/01/18 02:34:40;;;;;;;46.47;21.87;;;;;;;1.60;80.67;98410.72;5029362;28;20211;-80
2021/01/18 02:37:32;;;;;;;39.67;19.20;;;;;;;1.61;80.81;98402.13;5028234;28;20247;-80
2021/01/18 02:40:04;;;;;;;41.67;20.87;;;;;;;1.60;80.48;98405.56;5028164;28;20229;-80
2021/01/18 02:42:31;;;;;;;40.83;20.03;;;;;;;1.61;80.78;98406.41;5028469;28;20239;-81
2021/01/18 02:44:59;;;;;;;40.50;20.87;;;;;;;1.62;80.68;98403.84;5029158;28;20217;-77
2021/01/18 02:47:26;;;;;;;44.10;21.80;;;;;;;1.64;80.79;98404.72;5026847;28;20234;-77
2021/01/18 02:49:53;;;;;;;42.13;21.27;;;;;;;1.64;80.60;98412.44;5027346;28;20234;-77
2021/01/18 02:52:19;;;;;;;46.13;21.53;;;;;;;1.65;80.63;98415.84;5026639;28;20237;-78
2021/01/18 02:54:46;;;;;;;48.00;21.53;;;;;;;1.65;80.78;98406.41;5025928;28;20217;-78
2021/01/18 02:57:14;;;;;;;48.60;25.53;;;;;;;1.67;80.71;98411.56;5023484;28;20238;-78
2021/01/18 02:59:40;;;;;;;42.87;21.27;;;;;;;1.68;80.60;98409.00;5026077;28;20234;-78
2021/01/18 03:02:22;;;;;;;42.43;19.80;;;;;;;1.66;80.75;98415.84;5027024;28;20241;-78
2021/01/18 03:05:02;;;;;;;38.80;19.20;;;;;;;1.67;80.81;98412.44;5027888;28;20809;-79
2021/01/18 03:07:32;;;;;;;39.17;20.13;;;;;;;1.68;81.39;98415.88;5027754;28;20285;-79
2021/01/18 03:10:04;;;;;;;42.17;19.17;;;;;;;1.66;81.56;98413.28;5023189;28;20231;-77
2021/01/18 03:12:38;;;;;;;39.37;20.60;;;;;;;1.65;81.79;98414.13;5027403;28;20237;-78
2021/01/18 03:15:08;;;;;;;39.67;20.17;;;;;;;1.69;81.90;98421.00;5026126;28;20820;-78
2021/01/18 03:17:35;;;;;;;38.40;18.93;;;;;;;1.73;81.99;98421.88;5029264;28;20672;-78
2021/01/18 03:20:02;;;;;;;37.37;18.57;;;;;;;1.76;82.13;98410.72;5027380;28;20234;-77
2021/01/18 03:22:28;;;;;;;36.30;18.47;;;;;;;1.75;82.39;98415.00;5024379;28;20292;-78
2021/01/18 03:25:00;;;;;;;34.70;16.20;;;;;;;1.70;83.21;98411.56;5025563;28;20231;-78
2021/01/18 03:27:27;;;;;;;36.70;17.77;;;;;;;1.73;83.17;98411.59;5027655;28;20245;-78
2021/01/18 03:29:53;;;;;;;29.43;14.87;;;;;;;1.70;84.51;98415.00;5027083;28;20234;-77
2021/01/18 03:32:20;;;;;;;33.47;17.13;;;;;;;1.76;84.61;98421.00;5020880;28;20242;-77
2021/01/18 03:34:46;;;;;;;28.50;14.77;;;;;;;1.72;85.86;98423.56;5028346;28;20271;-76
2021/01/18 03:37:12;;;;;;;30.27;14.57;;;;;;;1.79;85.86;98421.88;5025359;28;20270;-77
2021/01/18 03:39:39;;;;;;;28.73;14.90;;;;;;;1.82;85.67;98424.44;5029413;28;20242;-78
2021/01/18 03:42:06;;;;;;;31.60;15.47;;;;;;;1.88;84.88;98433.88;5023616;28;20277;-77
2021/01/18 03:44:34;;;;;;;31.47;16.37;;;;;;;1.90;85.72;98434.75;5026023;28;20214;-78
2021/01/18 03:47:00;;;;;;;28.03;13.97;;;;;;;1.81;86.71;98429.59;5026253;28;20242;-78
2021/01/18 03:49:26;;;;;;;29.33;15.13;;;;;;;1.89;85.92;98438.16;5027036;28;20238;-77
2021/01/18 03:51:53;;;;;;;24.77;13.80;;;;;;;1.91;86.46;98439.00;5025144;28;20234;-78
2021/01/18 03:54:19;;;;;;;26.17;13.83;;;;;;;1.93;86.81;98437.34;5027050;28;20215;-77
2021/01/18 03:56:45;;;;;;;25.43;14.17;;;;;;;1.98;86.67;98438.16;5024985;28;20248;-79
2021/01/18 03:59:12;;;;;;;20.57;10.17;;;;;;;1.97;86.71;98436.47;5022666;28;20248;-76
2021/01/18 04:01:39;;;;;;;26.13;14.53;;;;;;;2.02;86.54;98434.75;5028662;28;20242;-77
2021/01/18 04:04:06;;;;;;;21.13;11.93;;;;;;;2.05;87.00;98433.88;5028852;28;20268;-77
2021/01/18 04:06:36;;;;;;;21.97;11.93;;;;;;;2.07;86.56;98438.16;5029430;28;20304;-78
2021/01/18 04:09:02;;;;;;;21.70;12.40;;;;;;;2.15;86.14;98434.72;5029867;28;20223;-78
2021/01/18 04:11:29;;;;;;;21.00;12.13;;;;;;;2.17;86.34;98436.47;5029653;28;20260;-77
2021/01/18 04:13:55;;;;;;;20.93;10.77;;;;;;;2.19;86.50;98436.44;5029884;28;20221;-77
2021/01/18 04:16:22;;;;;;;17.37;10.63;;;;;;;2.20;86.55;98430.44;5028294;28;20246;-77
2021/01/18 04:18:48;;;;;;;16.70;10.07;;;;;;;2.19;87.35;98441.59;5031625;28;20214;-78
2021/01/18 04:21:16;;;;;;;21.60;11.23;;;;;;;2.24;86.50;98437.31;5030244;28;20244;-77
2021/01/18 04:23:42;;;;;;;21.50;12.30;;;;;;;2.32;86.28;98443.31;5030651;28;20936;-78
2021/01/18 04:26:08;;;;;;;18.77;10.77;;;;;;;2.33;86.33;98439.88;5027831;28;20960;-78
2021/01/18 04:28:35;;;;;;;20.97;11.47;;;;;;;2.36;86.44;98445.03;5045113;28;20227;-79
2021/01/18 04:31:01;;;;;;;18.43;11.23;;;;;;;2.21;88.62;98439.91;5029045;28;20238;-78
2021/01/18 04:33:28;;;;;;;16.63;10.60;;;;;;;2.21;88.10;98442.47;5031370;28;20222;-79
2021/01/18 04:35:56;;;;;;;17.07;10.87;;;;;;;2.28;87.60;98449.34;5029604;28;21060;-78
2021/01/18 04:38:22;;;;;;;21.30;11.87;;;;;;;2.33;87.27;98451.91;5030572;28;20233;-77
2021/01/18 04:40:49;;;;;;;17.27;10.17;;;;;;;2.32;87.58;98453.63;5028606;28;20264;-77
2021/01/18 04:43:16;;;;;;;17.07;10.43;;;;;;;2.31;87.73;98455.31;5030065;28;20227;-77
2021/01/18 04:45:42;;;;;;;15.67;9.80;;;;;;;2.32;87.55;98461.34;5032999;28;20240;-77
2021/01/18 04:48:09;;;;;;;18.70;10.63;;;;;;;2.17;88.94;98462.22;5029766;28;20225;-79
2021/01/18 04:50:36;;;;;;;16.60;10.57;;;;;;;2.29;88.19;98463.91;5029996;28;20990;-78
2021/01/18 04:53:09;;;;;;;16.43;10.27;;;;;;;2.08;90.54;98470.78;5030458;28;20225;-77
2021/01/18 04:55:50;;;;;;;15.73;10.40;;;;;;;2.10;90.23;98466.47;5029881;28;20894;-77
2021/01/18 04:58:16;;;;;;;14.77;9.60;;;;;;;2.14;90.44;98459.63;5029207;28;20225;-78
2021/01/18 05:00:44;;;;;;;10.30;6.20;;;;;;;2.01;92.22;98463.91;5032430;28;20238;-78
2021/01/18 05:03:12;;;;;;;20.17;10.10;;;;;;;2.03;92.03;98467.34;5028423;28;20225;-78
2021/01/18 05:05:54;;;;;;;14.63;10.10;;;;;;;1.95;93.13;98474.19;5030405;28;20269;-78
2021/01/18 05:08:33;;;;;;;15.53;9.97;;;;;;;2.06;92.39;98467.34;5030541;28;20272;-77
2021/01/18 05:11:01;;;;;;;15.27;9.80;;;;;;;2.09;92.25;98469.91;5027950;28;20236;-78
2021/01/18 05:13:30;;;;;;;18.63;9.80;;;;;;;2.07;92.43;98468.19;5030589;28;20221;-77
2021/01/18 05:15:58;;;;;;;19.80;10.50;;;;;;;2.11;92.28;98465.63;5029380;28;20238;-78
2021/01/18 05:18:32;;;;;;;22.83;14.70;;;;;;;2.25;91.57;98473.34;5029861;28;20227;-78
2021/01/18 05:21:01;;;;;;;21.20;12.63;;;;;;;2.36;90.34;98469.91;5029781;28;20656;-78
2021/01/18 05:23:27;;;;;;;20.37;11.03;;;;;;;2.44;89.65;98469.03;5028805;28;20272;-78
2021/01/18 05:26:14;;;;;;;18.57;11.70;;;;;;;2.35;90.33;98476.75;5028602;28;20647;-77
2021/01/18 05:28:43;;;;;;;20.50;11.77;;;;;;;2.47;89.61;98473.34;5028810;28;20220;-77
2021/01/18 05:31:09;;;;;;;20.90;12.70;;;;;;;2.48;89.29;98473.34;5025479;28;20253;-77
2021/01/18 05:33:40;;;;;;;19.27;12.23;;;;;;;2.47;89.57;98474.19;5046654;28;20218;-76
2021/01/18 05:36:07;;;;;;;22.17;11.30;;;;;;;2.42;90.21;98470.75;5026640;28;20242;-78
2021/01/18 05:38:33;;;;;;;21.77;13.63;;;;;;;2.49;89.93;98475.03;5027772;28;20231;-79
2021/01/18 05:41:01;;;;;;;22.97;13.73;;;;;;;2.46;90.11;98479.34;5028945;28;20245;-80
2021/01/18 05:43:33;;;;;;;31.00;16.67;;;;;;;2.48;89.20;98481.06;5029311;28;20218;-77
2021/01/18 05:46:03;;;;;;;29.53;15.60;;;;;;;2.53;89.00;98488.78;5029053;28;20243;-77
2021/01/18 05:48:29;;;;;;;24.40;15.00;;;;;;;2.50;89.67;98484.50;5030735;28;20207;-78
2021/01/18 05:50:56;;;;;;;30.37;16.37;;;;;;;2.60;89.38;98489.63;5028499;28;20250;-78
2021/01/18 05:53:27;;;;;;;28.47;14.67;;;;;;;2.62;89.04;98487.91;5028853;28;20214;-77
2021/01/18 05:55:53;;;;;;;35.63;16.73;;;;;;;2.64;88.78;98492.19;5026548;28;20234;-78
2021/01/18 05:58:32;;;;;;;27.57;15.37;;;;;;;2.62;88.80;98498.22;5028425;28;20214;-78
2021/01/18 06:00:58;;;;;;;23.30;14.53;;;;;;;2.45;90.86;98500.81;5028418;28;20240;-78
2021/01/18 06:03:28;;;;;;;24.57;14.43;;;;;;;2.56;89.68;98499.09;5027582;28;20585;-78
2021/01/18 06:05:55;;;;;;;24.97;13.63;;;;;;;2.61;89.41;98492.22;5032410;28;20250;-78
2021/01/18 06:08:21;;;;;;;29.63;15.40;;;;;;;2.61;89.41;98506.78;5032127;28;20696;-78
2021/01/18 06:10:49;;;;;;;26.67;14.90;;;;;;;2.57;89.94;98500.78;5030113;28;20242;-79
2021/01/18 06:13:20;;;;;;;28.17;14.60;;;;;;;2.47;91.19;98499.09;5033330;28;20225;-78
2021/01/18 06:15:47;;;;;;;30.63;15.43;;;;;;;2.54;90.49;98502.50;5030090;28;20248;-78
2021/01/18 06:18:14;;;;;;;32.27;15.27;;;;;;;2.50;91.13;98506.81;5030753;28;20218;-77
2021/01/18 06:20:41;;;;;;;27.70;14.57;;;;;;;2.51;90.86;98504.22;5028649;28;20248;-77
2021/01/18 06:23:08;;;;;;;23.40;12.70;;;;;;;2.42;93.37;98505.94;5029176;28;20261;-76
2021/01/18 06:25:35;;;;;;;26.23;12.77;;;;;;;2.59;92.01;98511.09;5029347;28;20237;-78
2021/01/18 06:28:02;;;;;;;33.43;16.17;;;;;;;2.64;91.47;98501.66;5031597;28;20695;-78
2021/01/18 06:30:30;;;;;;;27.23;14.57;;;;;;;2.63;91.11;98510.25;5030028;28;20243;-78
2021/01/18 06:32:57;;;;;;;16.70;8.57;;;;;;;2.37;92.58;98508.53;5030579;28;21019;-78
2021/01/18 06:35:28;;;;;;;22.00;13.30;;;;;;;2.49;91.66;98508.53;5028694;28;20732;-79
2021/01/18 06:37:56;;;;;;;26.00;14.10;;;;;;;2.45;92.22;98517.09;5029466;28;20707;-78
2021/01/18 06:40:30;;;;;;;25.50;14.23;;;;;;;2.61;90.47;98519.66;5029206;28;20246;-78
2021/01/18 06:42:58;;;;;;;27.73;13.27;;;;;;;2.36;92.88;98522.25;5032316;28;20228;-77
2021/01/18 06:45:32;;;;;;;27.47;14.03;;;;;;;2.56;91.72;98529.13;5028589;28;20997;-77
2021/01/18 06:47:59;;;;;;;24.43;13.23;;;;;;;2.56;91.68;98530.00;5031428;28;20218;-77
2021/01/18 06:50:29;;;;;;;22.93;13.17;;;;;;;2.68;90.46;98539.41;5029728;28;20243;-77
2021/01/18 06:52:55;;;;;;;26.23;14.93;;;;;;;2.68;90.91;98544.56;5032132;28;20219;-77
2021/01/18 06:55:25;;;;;;;26.33;14.60;;;;;;;2.71;90.58;98549.72;5029034;28;20215;-78
2021/01/18 06:58:03;;;;;;;21.67;12.27;;;;;;;2.53;91.83;98554.88;5032061;28;20307;-78
2021/01/18 07:00:31;;;;;;;26.67;15.10;;;;;;;2.65;91.45;98568.63;5030096;28;20622;-77
2021/01/18 07:02:59;;;;;;;25.37;14.40;;;;;;;2.73;90.59;98568.59;5030374;28;20690;-76
2021/01/18 07:05:33;;;;;;;20.50;10.57;;;;;;;2.54;92.21;98572.03;5029081;28;20242;-78
2021/01/18 07:08:07;;;;;;;21.00;12.20;;;;;;;2.45;93.19;98565.19;5031899;28;20824;-79
2021/01/18 07:10:36;;;;;;;20.83;13.27;;;;;;;2.64;91.27;98573.75;5031422;28;20247;-78
2021/01/18 07:13:06;;;;;;;24.43;12.70;;;;;;;2.67;90.95;98572.03;5029243;28;20230;-77
2021/01/18 07:15:37;;;;;;;23.77;13.47;;;;;;;2.69;91.14;98574.63;5030361;28;20257;-78
2021/01/18 07:18:06;;;;;;;24.83;13.63;;;;;;;2.65;91.25;98580.66;5030343;28;20687;-78
2021/01/18 07:20:41;;;;;;;19.77;11.80;;;;;;;2.75;90.52;98586.66;5029449;28;20242;-78
2021/01/18 07:23:31;;;;;;;23.87;13.07;;;;;;;2.73;90.94;98589.22;5030181;28;20225;-78
2021/01/18 07:26:22;;;;;;;26.40;12.73;;;;;;;2.80;89.63;98583.22;5030137;28;20236;-78
2021/01/18 07:28:55;;;;;;;23.93;12.90;;;;;;;2.84;89.54;98586.63;5031078;28;20305;-79
2021/01/18 07:31:22;;;;;;;30.13;14.57;;;;;;;2.87;89.25;98584.94;5030299;28;20238;-78
2021/01/18 07:33:50;;;;;;;24.83;13.60;;;;;;;2.91;88.82;98585.78;5030493;28;20459;-79
2021/01/18 07:36:28;;;;;;;24.57;13.30;;;;;;;2.89;88.72;98601.25;5027558;28;20242;-80
2021/01/18 07:38:55;;;;;;;21.33;12.77;;;;;;;2.92;88.74;98604.66;5030450;28;20254;-78
2021/01/18 07:41:29;;;;;;;23.10;13.60;;;;;;;2.94;88.65;98608.97;5029651;28;20246;-78
2021/01/18 07:43:56;;;;;;;26.30;13.67;;;;;;;2.91;89.18;98613.28;5031406;28;20226;-79
2021/01/18 07:46:41;;;;;;;27.87;15.23;;;;;;;2.97;87.74;98608.97;5027660;28;20249;-79
2021/01/18 07:49:44;;;;;;;22.13;13.43;;;;;;;2.96;88.76;98611.53;5029600;28;20595;-79
2021/01/18 07:52:24;;;;;;;23.93;13.27;;;;;;;2.93;88.74;98611.56;5028735;28;20241;-78
2021/01/18 07:54:51;;;;;;;22.23;13.17;;;;;;;2.92;88.74;98614.97;5031187;28;20691;-80
2021/01/18 07:57:27;;;;;;;21.53;12.30;;;;;;;2.93;88.67;98620.13;5027568;28;20234;-78
2021/01/18 08:00:23;;;;;;;24.17;13.63;;;;;;;2.98;88.37;98621.00;5031647;28;20256;-78
2021/01/18 08:02:51;;;;;;;20.40;12.33;;;;;;;3.05;87.87;98620.13;5030070;28;20348;-79
2021/01/18 08:05:23;;;;;;;22.07;12.03;;;;;;;3.05;87.31;98621.84;5030480;28;20214;-78
2021/01/18 08:08:06;;;;;;;22.20;13.43;;;;;;;2.92;88.52;98620.13;5031740;28;20214;-78
2021/01/18 08:10:55;;;;;;;20.77;12.07;;;;;;;2.86;88.49;98626.16;5027948;28;20244;-80
2021/01/18 08:13:41;;;;;;;20.63;12.23;;;;;;;2.95;88.58;98620.13;5030800;28;20225;-78
2021/01/18 08:16:28;;;;;;;21.83;12.33;;;;;;;3.03;87.83;98623.56;5028740;28;20350;-79
2021/01/18 08:18:58;;;;;;;23.23;13.03;;;;;;;3.07;87.73;98620.13;5030551;28;20314;-77
2021/01/18 08:22:04;;;;;;;25.70;13.60;;;;;;;3.13;87.30;98624.44;5028131;28;20279;-77
2021/01/18 08:24:58;;;;;;;20.57;12.93;;;;;;;3.11;86.79;98627.00;5031257;28;20326;-79
2021/01/18 08:27:47;;;;;;;25.47;13.57;;;;;;;3.12;87.33;98627.84;5029750;28;20250;-78
2021/01/18 08:30:33;;;;;;;23.97;13.53;;;;;;;3.17;87.14;98632.13;5026424;28;20234;-79
2021/01/18 08:33:02;;;;;;;19.77;12.10;;;;;;;3.22;87.23;98630.41;5031383;28;20705;-77
2021/01/18 08:35:42;;;;;;;22.23;12.20;;;;;;;3.21;87.01;98628.69;5029395;28;20341;-80
2021/01/18 08:38:09;;;;;;;23.40;12.77;;;;;;;3.21;87.28;98631.25;5028836;28;20219;-78
2021/01/18 08:40:43;;;;;;;22.63;13.63;;;;;;;3.20;87.36;98642.47;5029195;28;20674;-78
2021/01/18 08:43:10;;;;;;;20.83;12.43;;;;;;;3.20;87.08;98632.16;5029308;28;20706;-77
2021/01/18 08:45:39;;;;;;;24.03;12.03;;;;;;;3.21;87.23;98641.56;5029537;28;20234;-78
2021/01/18 08:48:06;;;;;;;22.30;12.83;;;;;;;3.11;87.46;98632.16;5035165;28;20230;-78
2021/01/18 08:50:38;;;;;;;18.77;10.13;;;;;;;2.93;88.38;98639.91;5033113;28;20317;-78
2021/01/18 08:53:37;;;;;;;18.47;12.10;;;;;;;2.88;88.33;98639.88;5033572;28;20324;-77
2021/01/18 08:56:04;;;;;;;11.93;7.63;;;;;;;2.84;89.25;98644.19;5030610;28;20614;-78
2021/01/18 08:58:36;;;;;;;18.80;11.07;;;;;;;3.02;88.38;98645.06;5035166;28;20305;-77
2021/01/18 09:01:03;;;;;;;13.93;8.30;;;;;;;2.98;88.30;98654.50;5031272;28;20238;-77
2021/01/18 09:03:30;;;;;;;13.53;8.13;;;;;;;2.70;91.12;98648.47;5034242;28;20222;-77
2021/01/18 09:05:57;;;;;;;17.83;10.73;;;;;;;2.90;88.81;98658.78;5039440;28;20268;-79
2021/01/18 09:08:24;;;;;;;17.80;11.23;;;;;;;2.89;89.68;98652.78;5033836;28;20237;-78
2021/01/18 09:10:55;;;;;;;7.53;4.30;;;;;;;2.51;90.80;98661.31;5029958;28;20749;-77
2021/01/18 09:13:23;;;;;;;16.40;8.53;;;;;;;2.86;89.87;98663.06;5031923;28;20741;-78
2021/01/18 09:15:50;;;;;;;8.30;5.17;;;;;;;2.58;91.52;98654.47;5030881;28;20852;-78
2021/01/18 09:18:16;;;;;;;11.37;6.57;;;;;;;2.46;93.00;98657.88;5034099;28;20715;-79
2021/01/18 09:20:43;;;;;;;9.93;6.30;;;;;;;2.61;91.86;98659.63;5035257;28;20242;-78
2021/01/18 09:23:11;;;;;;;9.53;6.87;;;;;;;2.83;90.12;98662.22;5030354;28;20219;-77
2021/01/18 09:25:38;;;;;;;12.37;8.57;;;;;;;2.89;90.13;98660.50;5031522;28;20240;-78
2021/01/18 09:28:08;;;;;;;14.07;8.77;;;;;;;2.84;89.93;98662.22;5031804;28;20210;-80
2021/01/18 09:30:35;;;;;;;16.90;9.93;;;;;;;3.04;88.93;98654.50;5031748;28;20795;-79
2021/01/18 09:33:03;;;;;;;17.97;9.33;;;;;;;3.06;89.39;98662.22;5033341;28;20264;-78
2021/01/18 09:35:31;;;;;;;15.33;9.40;;;;;;;3.11;89.03;98670.81;5032761;28;20239;-78
2021/01/18 09:37:58;;;;;;;14.10;9.63;;;;;;;3.13;88.91;98666.53;5033077;28;20597;-80
2021/01/18 09:40:26;;;;;;;13.17;9.73;;;;;;;2.95;90.32;98671.69;5031878;28;20249;-79
2021/01/18 09:42:53;;;;;;;15.60;9.10;;;;;;;3.12;89.13;98669.94;5031571;28;20221;-79
2021/01/18 09:45:19;;;;;;;13.43;9.13;;;;;;;3.09;89.53;98659.66;5029387;28;20719;-78
2021/01/18 09:47:46;;;;;;;16.77;10.97;;;;;;;3.25;88.50;98657.91;5031445;28;20232;-78
2021/01/18 09:50:14;;;;;;;14.00;9.23;;;;;;;3.29;87.99;98667.38;5029034;28;20898;-78
2021/01/18 09:52:41;;;;;;;16.37;10.53;;;;;;;3.34;87.68;98655.31;5032361;28;20257;-78
2021/01/18 09:55:14;;;;;;;18.30;10.20;;;;;;;3.37;87.59;98655.31;5030980;28;20215;-78
2021/01/18 09:57:44;;;;;;;15.47;10.23;;;;;;;3.27;88.26;98657.06;5032579;28;20784;-78
2021/01/18 10:00:11;;;;;;;18.00;9.90;;;;;;;3.44;87.83;98656.19;5029297;28;20241;-77
2021/01/18 10:02:42;;;;;;;13.77;10.20;;;;;;;3.45;87.69;98652.72;5033321;28;20213;-78
2021/01/18 10:05:10;;;;;;;15.43;9.70;;;;;;;3.48;87.71;98653.56;5031190;28;20300;-78
2021/01/18 10:07:42;;;;;;;14.53;10.00;;;;;;;3.53;87.53;98653.59;5033746;28;20221;-78
2021/01/18 10:10:09;;;;;;;13.57;9.20;;;;;;;3.56;87.01;98661.28;5027957;28;20262;-78
2021/01/18 10:12:38;;;;;;;12.90;8.97;;;;;;;3.48;86.71;98648.41;5031144;28;20305;-79
2021/01/18 10:15:06;;;;;;;12.07;8.87;;;;;;;3.38;86.91;98653.59;5030446;28;20301;-78
2021/01/18 10:17:33;;;;;;;12.27;8.40;;;;;;;3.40;87.22;98659.59;5033201;28;20227;-77
2021/01/18 10:20:05;;;;;;;9.53;6.07;;;;;;;3.39;87.17;98653.59;5032307;28;20249;-77
2021/01/18 10:22:36;;;;;;;15.23;8.63;;;;;;;3.47;87.04;98651.00;5028805;28;20771;-79
2021/01/18 10:25:08;;;;;;;10.67;7.47;;;;;;;3.37;87.09;98654.47;5030509;28;20218;-78
2021/01/18 10:27:34;;;;;;;11.87;7.33;;;;;;;3.35;87.84;98656.19;5032411;28;20377;-78
2021/01/18 10:30:13;;;;;;;14.63;9.50;;;;;;;3.38;86.29;98651.00;5029421;28;20702;-78
2021/01/18 10:32:40;;;;;;;13.23;8.63;;;;;;;3.44;87.09;98651.88;5012934;28;20242;-77
2021/01/18 10:35:22;;;;;;;12.47;8.23;;;;;;;3.51;86.75;98655.31;5010350;28;20936;-79
2021/01/18 10:37:48;;;;;;;8.53;5.20;;;;;;;3.32;87.62;98653.63;5030654;28;20272;-78
2021/01/18 10:40:20;;;;;;;11.27;6.93;;;;;;;3.32;87.20;98651.03;5027908;28;20343;-80
2021/01/18 10:42:51;;;;;;;9.97;5.83;;;;;;;3.50;86.49;98645.84;5030987;28;20229;-80
2021/01/18 10:45:20;;;;;;;12.90;8.33;;;;;;;3.63;86.14;98652.69;5029482;28;20215;-79
2021/01/18 10:47:54;;;;;;;11.87;7.40;;;;;;;3.69;85.03;98654.38;5031508;28;20272;-79
2021/01/18 10:50:26;;;;;;;10.53;7.13;;;;;;;3.58;85.93;98654.41;5032373;28;20231;-77
2021/01/18 10:53:04;;;;;;;11.17;8.27;;;;;;;3.66;86.00;98652.69;5031532;28;20226;-80
2021/01/18 10:55:30;;;;;;;15.73;8.43;;;;;;;3.80;85.36;98649.19;5030174;28;20240;-78
2021/01/18 10:57:57;;;;;;;15.27;10.90;;;;;;;3.80;85.26;98646.59;5032641;28;20267;-78
2021/01/18 11:00:26;;;;;;;13.73;7.80;;;;;;;3.79;85.12;98639.75;5028775;28;20296;-78
2021/01/18 11:02:55;;;;;;;13.60;8.57;;;;;;;3.69;85.76;98650.94;5030914;28;20219;-79
2021/01/18 11:05:31;;;;;;;13.27;9.67;;;;;;;3.67;85.28;98644.06;5028841;28;20222;-80
2021/01/18 11:07:58;;;;;;;9.50;7.50;;;;;;;3.61;86.02;98644.09;5031957;28;20232;-80
2021/01/18 11:10:26;;;;;;;11.57;8.23;;;;;;;3.74;85.63;98649.22;5028432;28;20238;-80
2021/01/18 11:13:09;;;;;;;9.57;6.53;;;;;;;3.63;85.67;98642.34;5031214;28;20219;-78
2021/01/18 11:15:38;;;;;;;12.53;7.20;;;;;;;3.85;85.24;98644.88;5029925;28;20265;-78
2021/01/18 11:18:07;;;;;;;11.87;7.13;;;;;;;3.89;84.92;98648.31;5030799;28;20781;-79
2021/01/18 11:20:33;;;;;;;12.07;7.80;;;;;;;3.88;84.41;98646.56;5030349;28;20326;-78
2021/01/18 11:22:59;;;;;;;11.23;7.27;;;;;;;3.71;85.09;98644.06;5030344;28;20225;-79
2021/01/18 11:25:26;;;;;;;11.33;7.53;;;;;;;3.78;84.59;98640.59;5027950;28;20284;-79
2021/01/18 11:27:52;;;;;;;10.50;7.17;;;;;;;3.83;85.01;98638.88;5032324;28;20226;-79
2021/01/18 11:30:19;;;;;;;8.00;3.73;;;;;;;3.35;85.53;98643.31;5028066;28;20241;-80
2021/01/18 11:32:46;;;;;;;15.67;8.97;;;;;;;3.57;85.45;98639.81;5030639;28;20353;-77
2021/01/18 11:35:13;;;;;;;15.70;8.07;;;;;;;3.83;83.98;98633.72;5027756;28;20218;-79
2021/01/18 11:37:40;;;;;;;11.63;8.30;;;;;;;3.92;83.76;98630.25;5032097;28;20241;-80
2021/01/18 11:40:08;;;;;;;13.00;7.00;;;;;;;3.67;84.47;98635.47;5027721;28;20975;-80
2021/01/18 11:42:36;;;;;;;7.50;5.20;;;;;;;3.67;84.18;98635.47;5031791;28;20211;-78